sensor_id;sensor_type;location;lat;lon;timestamp;P1;durP1;ratioP1;P2;durP2;ratioP2
74872;SDS011;68776;44.762;37.698;2023-04-02T00:00:32;4.38;;;0.60;;
74872;SDS011;68776;44.762;37.698;2023-04-02T00:01:35;3.20;;;0.55;;
74872;SDS011;68776;44.762;37.698;2023-04-02T00:02:44;3.65;;;0.60;;
74872;SDS011;68776;44.762;37.698;2023-04-02T00:06:35;4.32;;;0.65;;
74872;SDS011;68776;44.762;37.698;2023-04-02T00:07:50;5.15;;;0.70;;
74872;SDS011;68776;44.762;37.698;2023-04-02T00:08:52;4.37;;;0.60;;
74872;SDS011;68776;44.762;37.698;2023-04-02T00:09:56;3.05;;;0.70;;
74872;SDS011;68776;44.762;37.698;2023-04-02T00:11:00;3.70;;;0.70;;
74872;SDS011;68776;44.762;37.698;2023-04-02T00:12:10;3.28;;;0.63;;
74872;SDS011;68776;44.762;37.698;2023-04-02T00:14:26;4.82;;;0.80;;
74872;SDS011;68776;44.762;37.698;2023-04-02T00:15:29;3.50;;;0.73;;
74872;SDS011;68776;44.762;37.698;2023-04-02T00:16:31;3.55;;;0.75;;
74872;SDS011;68776;44.762;37.698;2023-04-02T00:17:32;4.57;;;0.90;;
74872;SDS011;68776;44.762;37.698;2023-04-02T00:18:33;3.45;;;0.73;;
74872;SDS011;68776;44.762;37.698;2023-04-02T00:22:04;3.47;;;0.75;;
74872;SDS011;68776;44.762;37.698;2023-04-02T00:23:09;4.65;;;0.70;;
74872;SDS011;68776;44.762;37.698;2023-04-02T00:24:16;5.13;;;0.90;;
74872;SDS011;68776;44.762;37.698;2023-04-02T00:25:19;3.72;;;0.88;;
74872;SDS011;68776;44.762;37.698;2023-04-02T00:26:31;3.63;;;0.60;;
74872;SDS011;68776;44.762;37.698;2023-04-02T00:27:35;3.00;;;0.60;;
74872;SDS011;68776;44.762;37.698;2023-04-02T00:28:36;4.35;;;0.73;;
74872;SDS011;68776;44.762;37.698;2023-04-02T00:29:43;5.03;;;1.30;;
74872;SDS011;68776;44.762;37.698;2023-04-02T00:30:53;6.33;;;1.53;;
74872;SDS011;68776;44.762;37.698;2023-04-02T00:31:58;6.60;;;1.50;;
74872;SDS011;68776;44.762;37.698;2023-04-02T00:32:59;8.23;;;1.88;;
74872;SDS011;68776;44.762;37.698;2023-04-02T00:34:01;7.53;;;1.80;;
74872;SDS011;68776;44.762;37.698;2023-04-02T00:35:39;7.07;;;1.90;;
74872;SDS011;68776;44.762;37.698;2023-04-02T00:36:37;10.75;;;2.40;;
74872;SDS011;68776;44.762;37.698;2023-04-02T00:37:38;8.07;;;2.20;;
74872;SDS011;68776;44.762;37.698;2023-04-02T00:38:41;8.80;;;2.50;;
74872;SDS011;68776;44.762;37.698;2023-04-02T00:39:43;16.63;;;3.00;;
74872;SDS011;68776;44.762;37.698;2023-04-02T00:40:45;12.32;;;2.95;;
74872;SDS011;68776;44.762;37.698;2023-04-02T00:41:46;12.43;;;3.30;;
74872;SDS011;68776;44.762;37.698;2023-04-02T00:42:49;9.35;;;2.30;;
74872;SDS011;68776;44.762;37.698;2023-04-02T00:43:51;9.68;;;2.40;;
74872;SDS011;68776;44.762;37.698;2023-04-02T00:44:54;10.15;;;2.88;;
74872;SDS011;68776;44.762;37.698;2023-04-02T00:46:02;9.95;;;3.08;;
74872;SDS011;68776;44.762;37.698;2023-04-02T00:47:18;9.02;;;2.80;;
74872;SDS011;68776;44.762;37.698;2023-04-02T00:49:31;10.45;;;3.30;;
74872;SDS011;68776;44.762;37.698;2023-04-02T00:50:38;11.52;;;2.80;;
74872;SDS011;68776;44.762;37.698;2023-04-02T00:51:49;9.60;;;2.93;;
74872;SDS011;68776;44.762;37.698;2023-04-02T00:52:54;10.25;;;2.90;;
74872;SDS011;68776;44.762;37.698;2023-04-02T00:53:59;8.77;;;2.70;;
74872;SDS011;68776;44.762;37.698;2023-04-02T00:55:05;9.30;;;2.73;;
74872;SDS011;68776;44.762;37.698;2023-04-02T00:56:18;7.10;;;2.00;;
74872;SDS011;68776;44.762;37.698;2023-04-02T00:57:30;11.33;;;2.00;;
74872;SDS011;68776;44.762;37.698;2023-04-02T00:58:33;9.25;;;2.35;;
74872;SDS011;68776;44.762;37.698;2023-04-02T00:59:42;6.35;;;2.25;;
74872;SDS011;68776;44.762;37.698;2023-04-02T01:01:14;5.75;;;1.52;;
74872;SDS011;68776;44.762;37.698;2023-04-02T01:02:23;6.63;;;1.52;;
74872;SDS011;68776;44.762;37.698;2023-04-02T01:04:35;7.23;;;1.50;;
74872;SDS011;68776;44.762;37.698;2023-04-02T01:05:36;4.90;;;1.30;;
74872;SDS011;68776;44.762;37.698;2023-04-02T01:06:38;5.70;;;1.38;;
74872;SDS011;68776;44.762;37.698;2023-04-02T01:07:43;4.65;;;1.30;;
74872;SDS011;68776;44.762;37.698;2023-04-02T01:13:07;5.95;;;1.40;;
74872;SDS011;68776;44.762;37.698;2023-04-02T01:16:09;6.05;;;1.48;;
74872;SDS011;68776;44.762;37.698;2023-04-02T01:17:16;4.88;;;1.10;;
74872;SDS011;68776;44.762;37.698;2023-04-02T01:19:47;5.13;;;1.25;;
74872;SDS011;68776;44.762;37.698;2023-04-02T01:22:21;8.20;;;1.40;;
74872;SDS011;68776;44.762;37.698;2023-04-02T01:23:56;5.40;;;1.50;;
74872;SDS011;68776;44.762;37.698;2023-04-02T01:24:58;4.45;;;1.23;;
74872;SDS011;68776;44.762;37.698;2023-04-02T01:26:42;7.05;;;1.40;;
74872;SDS011;68776;44.762;37.698;2023-04-02T01:27:41;5.53;;;1.60;;
74872;SDS011;68776;44.762;37.698;2023-04-02T01:29:59;6.80;;;1.55;;
74872;SDS011;68776;44.762;37.698;2023-04-02T01:31:02;5.72;;;1.30;;
74872;SDS011;68776;44.762;37.698;2023-04-02T01:32:05;5.13;;;1.50;;
74872;SDS011;68776;44.762;37.698;2023-04-02T01:33:10;5.63;;;1.40;;
74872;SDS011;68776;44.762;37.698;2023-04-02T01:34:15;7.43;;;1.70;;
74872;SDS011;68776;44.762;37.698;2023-04-02T01:35:20;5.40;;;1.40;;
74872;SDS011;68776;44.762;37.698;2023-04-02T01:38:58;6.45;;;1.90;;
74872;SDS011;68776;44.762;37.698;2023-04-02T01:40:38;8.77;;;1.80;;
74872;SDS011;68776;44.762;37.698;2023-04-02T01:43:11;6.70;;;2.03;;
74872;SDS011;68776;44.762;37.698;2023-04-02T01:44:20;7.85;;;2.17;;
74872;SDS011;68776;44.762;37.698;2023-04-02T01:45:29;8.57;;;1.90;;
74872;SDS011;68776;44.762;37.698;2023-04-02T01:46:31;7.88;;;2.00;;
74872;SDS011;68776;44.762;37.698;2023-04-02T01:47:34;6.22;;;1.95;;
74872;SDS011;68776;44.762;37.698;2023-04-02T01:48:38;11.32;;;2.10;;
74872;SDS011;68776;44.762;37.698;2023-04-02T01:49:40;9.35;;;2.20;;
74872;SDS011;68776;44.762;37.698;2023-04-02T01:50:43;7.20;;;2.20;;
74872;SDS011;68776;44.762;37.698;2023-04-02T01:51:46;7.72;;;2.10;;
74872;SDS011;68776;44.762;37.698;2023-04-02T01:52:54;9.38;;;2.42;;
74872;SDS011;68776;44.762;37.698;2023-04-02T01:53:59;7.82;;;2.50;;
74872;SDS011;68776;44.762;37.698;2023-04-02T01:55:02;6.53;;;2.13;;
74872;SDS011;68776;44.762;37.698;2023-04-02T01:56:04;10.07;;;2.40;;
74872;SDS011;68776;44.762;37.698;2023-04-02T01:57:06;10.23;;;2.20;;
74872;SDS011;68776;44.762;37.698;2023-04-02T01:58:08;11.50;;;2.80;;
74872;SDS011;68776;44.762;37.698;2023-04-02T01:59:11;11.23;;;2.20;;
74872;SDS011;68776;44.762;37.698;2023-04-02T02:00:15;8.88;;;2.50;;
74872;SDS011;68776;44.762;37.698;2023-04-02T02:01:23;8.27;;;2.50;;
74872;SDS011;68776;44.762;37.698;2023-04-02T02:02:26;11.23;;;2.65;;
74872;SDS011;68776;44.762;37.698;2023-04-02T02:03:27;7.55;;;2.20;;
74872;SDS011;68776;44.762;37.698;2023-04-02T02:04:29;9.40;;;2.40;;
74872;SDS011;68776;44.762;37.698;2023-04-02T02:05:31;10.38;;;2.50;;
74872;SDS011;68776;44.762;37.698;2023-04-02T02:06:33;11.55;;;2.45;;
74872;SDS011;68776;44.762;37.698;2023-04-02T02:07:34;9.75;;;2.30;;
74872;SDS011;68776;44.762;37.698;2023-04-02T02:08:38;7.40;;;2.50;;
74872;SDS011;68776;44.762;37.698;2023-04-02T02:09:47;8.75;;;2.53;;
74872;SDS011;68776;44.762;37.698;2023-04-02T02:10:49;8.77;;;2.20;;
74872;SDS011;68776;44.762;37.698;2023-04-02T02:11:50;9.18;;;2.42;;
74872;SDS011;68776;44.762;37.698;2023-04-02T02:12:51;9.27;;;2.47;;
74872;SDS011;68776;44.762;37.698;2023-04-02T02:13:56;7.97;;;2.60;;
74872;SDS011;68776;44.762;37.698;2023-04-02T02:15:19;7.72;;;2.30;;
74872;SDS011;68776;44.762;37.698;2023-04-02T02:16:22;8.13;;;2.35;;
74872;SDS011;68776;44.762;37.698;2023-04-02T02:17:26;9.93;;;2.35;;
74872;SDS011;68776;44.762;37.698;2023-04-02T02:18:33;8.95;;;2.40;;
74872;SDS011;68776;44.762;37.698;2023-04-02T02:19:35;8.50;;;2.60;;
74872;SDS011;68776;44.762;37.698;2023-04-02T02:20:39;8.18;;;2.70;;
74872;SDS011;68776;44.762;37.698;2023-04-02T02:21:42;7.30;;;2.30;;
74872;SDS011;68776;44.762;37.698;2023-04-02T02:22:48;7.50;;;2.63;;
74872;SDS011;68776;44.762;37.698;2023-04-02T02:23:51;7.05;;;2.50;;
74872;SDS011;68776;44.762;37.698;2023-04-02T02:24:53;8.68;;;2.35;;
74872;SDS011;68776;44.762;37.698;2023-04-02T02:25:56;11.95;;;2.50;;
74872;SDS011;68776;44.762;37.698;2023-04-02T02:27:13;9.13;;;2.70;;
74872;SDS011;68776;44.762;37.698;2023-04-02T02:28:30;8.23;;;2.53;;
74872;SDS011;68776;44.762;37.698;2023-04-02T02:29:36;12.38;;;3.20;;
74872;SDS011;68776;44.762;37.698;2023-04-02T02:30:53;12.13;;;3.75;;
74872;SDS011;68776;44.762;37.698;2023-04-02T02:32:02;9.73;;;3.20;;
74872;SDS011;68776;44.762;37.698;2023-04-02T02:33:16;12.20;;;4.05;;
74872;SDS011;68776;44.762;37.698;2023-04-02T02:34:24;11.20;;;3.70;;
74872;SDS011;68776;44.762;37.698;2023-04-02T02:35:42;12.68;;;3.45;;
74872;SDS011;68776;44.762;37.698;2023-04-02T02:36:54;11.82;;;4.10;;
74872;SDS011;68776;44.762;37.698;2023-04-02T02:39:23;12.95;;;4.30;;
74872;SDS011;68776;44.762;37.698;2023-04-02T02:40:31;13.52;;;4.28;;
74872;SDS011;68776;44.762;37.698;2023-04-02T02:41:52;12.80;;;4.35;;
74872;SDS011;68776;44.762;37.698;2023-04-02T02:43:03;13.38;;;4.15;;
74872;SDS011;68776;44.762;37.698;2023-04-02T02:44:28;12.63;;;4.10;;
74872;SDS011;68776;44.762;37.698;2023-04-02T02:45:35;11.88;;;4.38;;
74872;SDS011;68776;44.762;37.698;2023-04-02T02:47:24;14.70;;;5.10;;
74872;SDS011;68776;44.762;37.698;2023-04-02T02:48:12;14.07;;;4.18;;
74872;SDS011;68776;44.762;37.698;2023-04-02T02:49:19;10.77;;;4.00;;
74872;SDS011;68776;44.762;37.698;2023-04-02T02:50:26;9.75;;;3.30;;
74872;SDS011;68776;44.762;37.698;2023-04-02T02:52:05;10.88;;;3.63;;
74872;SDS011;68776;44.762;37.698;2023-04-02T02:53:25;11.45;;;3.70;;
74872;SDS011;68776;44.762;37.698;2023-04-02T02:54:28;10.85;;;3.60;;
74872;SDS011;68776;44.762;37.698;2023-04-02T02:55:32;8.90;;;3.07;;
74872;SDS011;68776;44.762;37.698;2023-04-02T02:56:46;8.88;;;3.55;;
74872;SDS011;68776;44.762;37.698;2023-04-02T02:57:57;10.60;;;3.75;;
74872;SDS011;68776;44.762;37.698;2023-04-02T02:59:12;11.43;;;3.67;;
74872;SDS011;68776;44.762;37.698;2023-04-02T03:00:16;15.10;;;4.72;;
74872;SDS011;68776;44.762;37.698;2023-04-02T03:01:19;12.07;;;4.20;;
74872;SDS011;68776;44.762;37.698;2023-04-02T03:02:23;25.13;;;8.07;;
74872;SDS011;68776;44.762;37.698;2023-04-02T03:03:27;33.50;;;8.98;;
74872;SDS011;68776;44.762;37.698;2023-04-02T03:04:34;27.30;;;8.38;;
74872;SDS011;68776;44.762;37.698;2023-04-02T03:05:38;36.40;;;11.13;;
74872;SDS011;68776;44.762;37.698;2023-04-02T03:06:50;28.33;;;8.60;;
74872;SDS011;68776;44.762;37.698;2023-04-02T03:07:55;26.35;;;8.63;;
74872;SDS011;68776;44.762;37.698;2023-04-02T03:09:05;20.00;;;7.10;;
74872;SDS011;68776;44.762;37.698;2023-04-02T03:10:20;21.35;;;7.85;;
74872;SDS011;68776;44.762;37.698;2023-04-02T03:14:22;18.27;;;6.87;;
74872;SDS011;68776;44.762;37.698;2023-04-02T03:15:41;20.80;;;7.10;;
74872;SDS011;68776;44.762;37.698;2023-04-02T03:17:54;18.05;;;6.38;;
74872;SDS011;68776;44.762;37.698;2023-04-02T03:21:30;20.63;;;7.32;;
74872;SDS011;68776;44.762;37.698;2023-04-02T03:24:45;20.70;;;8.48;;
74872;SDS011;68776;44.762;37.698;2023-04-02T03:26:29;24.65;;;8.55;;
74872;SDS011;68776;44.762;37.698;2023-04-02T03:27:29;26.60;;;9.45;;
74872;SDS011;68776;44.762;37.698;2023-04-02T03:28:38;25.92;;;9.20;;
74872;SDS011;68776;44.762;37.698;2023-04-02T03:29:44;25.08;;;8.07;;
74872;SDS011;68776;44.762;37.698;2023-04-02T03:32:16;22.80;;;9.45;;
74872;SDS011;68776;44.762;37.698;2023-04-02T03:33:26;23.52;;;8.32;;
74872;SDS011;68776;44.762;37.698;2023-04-02T03:34:40;17.25;;;6.97;;
74872;SDS011;68776;44.762;37.698;2023-04-02T03:40:35;10.93;;;4.35;;
74872;SDS011;68776;44.762;37.698;2023-04-02T03:41:42;13.00;;;5.00;;
74872;SDS011;68776;44.762;37.698;2023-04-02T03:42:53;11.77;;;4.13;;
74872;SDS011;68776;44.762;37.698;2023-04-02T03:44:01;12.45;;;4.28;;
74872;SDS011;68776;44.762;37.698;2023-04-02T03:45:12;12.93;;;4.20;;
74872;SDS011;68776;44.762;37.698;2023-04-02T03:48:58;9.87;;;3.70;;
74872;SDS011;68776;44.762;37.698;2023-04-02T03:51:47;14.85;;;4.65;;
74872;SDS011;68776;44.762;37.698;2023-04-02T03:52:50;15.55;;;4.50;;
74872;SDS011;68776;44.762;37.698;2023-04-02T03:53:52;15.57;;;4.40;;
74872;SDS011;68776;44.762;37.698;2023-04-02T03:54:54;20.45;;;5.47;;
74872;SDS011;68776;44.762;37.698;2023-04-02T03:55:57;21.60;;;5.37;;
74872;SDS011;68776;44.762;37.698;2023-04-02T03:57:00;19.05;;;5.32;;
74872;SDS011;68776;44.762;37.698;2023-04-02T03:59:30;17.27;;;5.33;;
74872;SDS011;68776;44.762;37.698;2023-04-02T04:01:59;15.53;;;4.63;;
74872;SDS011;68776;44.762;37.698;2023-04-02T04:03:48;17.08;;;4.97;;
74872;SDS011;68776;44.762;37.698;2023-04-02T04:04:27;17.27;;;5.07;;
74872;SDS011;68776;44.762;37.698;2023-04-02T04:05:32;13.23;;;4.10;;
74872;SDS011;68776;44.762;37.698;2023-04-02T04:06:40;14.35;;;3.65;;
74872;SDS011;68776;44.762;37.698;2023-04-02T04:07:43;13.95;;;4.93;;
74872;SDS011;68776;44.762;37.698;2023-04-02T04:08:56;16.38;;;4.65;;
74872;SDS011;68776;44.762;37.698;2023-04-02T04:10:06;14.00;;;4.10;;
74872;SDS011;68776;44.762;37.698;2023-04-02T04:11:15;13.95;;;4.30;;
74872;SDS011;68776;44.762;37.698;2023-04-02T04:13:33;9.98;;;3.00;;
74872;SDS011;68776;44.762;37.698;2023-04-02T04:14:42;10.05;;;2.65;;
74872;SDS011;68776;44.762;37.698;2023-04-02T04:15:59;10.52;;;2.50;;
74872;SDS011;68776;44.762;37.698;2023-04-02T04:18:50;9.25;;;2.05;;
74872;SDS011;68776;44.762;37.698;2023-04-02T04:20:12;9.13;;;2.15;;
74872;SDS011;68776;44.762;37.698;2023-04-02T04:21:25;8.50;;;1.90;;
74872;SDS011;68776;44.762;37.698;2023-04-02T04:22:42;7.25;;;1.60;;
74872;SDS011;68776;44.762;37.698;2023-04-02T04:23:50;7.38;;;1.40;;
74872;SDS011;68776;44.762;37.698;2023-04-02T04:24:53;12.38;;;1.80;;
74872;SDS011;68776;44.762;37.698;2023-04-02T04:26:00;5.70;;;1.50;;
74872;SDS011;68776;44.762;37.698;2023-04-02T04:30:03;9.30;;;2.30;;
74872;SDS011;68776;44.762;37.698;2023-04-02T04:31:18;8.55;;;2.58;;
74872;SDS011;68776;44.762;37.698;2023-04-02T04:33:40;9.93;;;2.20;;
74872;SDS011;68776;44.762;37.698;2023-04-02T04:34:49;9.43;;;2.43;;
74872;SDS011;68776;44.762;37.698;2023-04-02T04:35:57;7.93;;;2.35;;
74872;SDS011;68776;44.762;37.698;2023-04-02T04:37:05;6.82;;;1.70;;
74872;SDS011;68776;44.762;37.698;2023-04-02T04:38:27;6.28;;;1.60;;
74872;SDS011;68776;44.762;37.698;2023-04-02T04:40:02;6.00;;;1.70;;
74872;SDS011;68776;44.762;37.698;2023-04-02T04:41:22;7.30;;;1.70;;
74872;SDS011;68776;44.762;37.698;2023-04-02T04:42:35;6.97;;;1.20;;
74872;SDS011;68776;44.762;37.698;2023-04-02T04:43:48;5.60;;;1.50;;
74872;SDS011;68776;44.762;37.698;2023-04-02T04:45:02;7.07;;;1.80;;
74872;SDS011;68776;44.762;37.698;2023-04-02T04:46:37;6.63;;;1.98;;
74872;SDS011;68776;44.762;37.698;2023-04-02T04:48:22;7.95;;;2.25;;
74872;SDS011;68776;44.762;37.698;2023-04-02T04:49:46;18.30;;;4.20;;
74872;SDS011;68776;44.762;37.698;2023-04-02T04:51:58;13.63;;;3.60;;
74872;SDS011;68776;44.762;37.698;2023-04-02T04:53:27;11.85;;;3.08;;
74872;SDS011;68776;44.762;37.698;2023-04-02T04:54:31;7.55;;;2.10;;
74872;SDS011;68776;44.762;37.698;2023-04-02T04:55:47;9.53;;;2.27;;
74872;SDS011;68776;44.762;37.698;2023-04-02T04:56:50;9.93;;;2.33;;
74872;SDS011;68776;44.762;37.698;2023-04-02T04:58:02;14.52;;;2.53;;
74872;SDS011;68776;44.762;37.698;2023-04-02T04:59:14;6.32;;;1.90;;
74872;SDS011;68776;44.762;37.698;2023-04-02T05:00:31;5.25;;;1.50;;
74872;SDS011;68776;44.762;37.698;2023-04-02T05:04:34;7.10;;;1.70;;
74872;SDS011;68776;44.762;37.698;2023-04-02T05:05:37;10.25;;;1.60;;
74872;SDS011;68776;44.762;37.698;2023-04-02T05:06:42;8.77;;;1.65;;
74872;SDS011;68776;44.762;37.698;2023-04-02T05:07:49;8.93;;;1.80;;
74872;SDS011;68776;44.762;37.698;2023-04-02T05:08:55;8.27;;;1.90;;
74872;SDS011;68776;44.762;37.698;2023-04-02T05:11:18;7.30;;;1.77;;
74872;SDS011;68776;44.762;37.698;2023-04-02T05:15:13;6.63;;;1.73;;
74872;SDS011;68776;44.762;37.698;2023-04-02T05:18:06;8.07;;;1.92;;
74872;SDS011;68776;44.762;37.698;2023-04-02T05:19:09;5.80;;;1.90;;
74872;SDS011;68776;44.762;37.698;2023-04-02T05:20:23;7.60;;;2.00;;
74872;SDS011;68776;44.762;37.698;2023-04-02T05:23:31;8.85;;;2.05;;
74872;SDS011;68776;44.762;37.698;2023-04-02T05:24:42;10.68;;;2.30;;
74872;SDS011;68776;44.762;37.698;2023-04-02T05:26:07;11.30;;;2.30;;
74872;SDS011;68776;44.762;37.698;2023-04-02T05:29:27;7.90;;;2.08;;
74872;SDS011;68776;44.762;37.698;2023-04-02T05:30:40;10.60;;;2.38;;
74872;SDS011;68776;44.762;37.698;2023-04-02T05:31:49;9.15;;;2.25;;
74872;SDS011;68776;44.762;37.698;2023-04-02T05:32:59;8.88;;;2.15;;
74872;SDS011;68776;44.762;37.698;2023-04-02T05:34:07;12.18;;;2.92;;
74872;SDS011;68776;44.762;37.698;2023-04-02T05:35:13;9.93;;;2.50;;
74872;SDS011;68776;44.762;37.698;2023-04-02T05:36:21;13.50;;;2.90;;
74872;SDS011;68776;44.762;37.698;2023-04-02T05:37:28;9.65;;;2.30;;
74872;SDS011;68776;44.762;37.698;2023-04-02T05:38:32;5.90;;;1.43;;
74872;SDS011;68776;44.762;37.698;2023-04-02T05:39:36;8.68;;;1.60;;
74872;SDS011;68776;44.762;37.698;2023-04-02T05:40:38;7.45;;;1.92;;
74872;SDS011;68776;44.762;37.698;2023-04-02T05:41:44;8.05;;;1.70;;
74872;SDS011;68776;44.762;37.698;2023-04-02T05:42:54;6.93;;;1.67;;
74872;SDS011;68776;44.762;37.698;2023-04-02T05:45:36;9.37;;;1.80;;
74872;SDS011;68776;44.762;37.698;2023-04-02T05:46:44;8.32;;;1.52;;
74872;SDS011;68776;44.762;37.698;2023-04-02T05:47:53;6.22;;;1.00;;
74872;SDS011;68776;44.762;37.698;2023-04-02T05:49:06;5.57;;;0.90;;
74872;SDS011;68776;44.762;37.698;2023-04-02T05:50:22;5.47;;;0.90;;
74872;SDS011;68776;44.762;37.698;2023-04-02T05:51:42;4.53;;;0.88;;
74872;SDS011;68776;44.762;37.698;2023-04-02T05:52:55;6.15;;;0.93;;
74872;SDS011;68776;44.762;37.698;2023-04-02T05:54:16;4.20;;;0.80;;
74872;SDS011;68776;44.762;37.698;2023-04-02T05:55:34;3.40;;;0.80;;
74872;SDS011;68776;44.762;37.698;2023-04-02T05:56:56;5.45;;;0.90;;
74872;SDS011;68776;44.762;37.698;2023-04-02T05:58:30;5.13;;;0.80;;
74872;SDS011;68776;44.762;37.698;2023-04-02T06:00:05;3.15;;;0.70;;
74872;SDS011;68776;44.762;37.698;2023-04-02T06:02:40;5.72;;;0.63;;
74872;SDS011;68776;44.762;37.698;2023-04-02T06:03:59;4.38;;;0.80;;
74872;SDS011;68776;44.762;37.698;2023-04-02T06:05:11;4.97;;;0.60;;
74872;SDS011;68776;44.762;37.698;2023-04-02T06:07:28;3.90;;;0.60;;
74872;SDS011;68776;44.762;37.698;2023-04-02T06:08:41;3.57;;;0.57;;
74872;SDS011;68776;44.762;37.698;2023-04-02T06:09:54;5.15;;;0.60;;
74872;SDS011;68776;44.762;37.698;2023-04-02T06:11:10;4.47;;;0.63;;
74872;SDS011;68776;44.762;37.698;2023-04-02T06:12:22;4.55;;;0.70;;
74872;SDS011;68776;44.762;37.698;2023-04-02T06:13:39;4.35;;;0.70;;
74872;SDS011;68776;44.762;37.698;2023-04-02T06:14:40;3.72;;;0.75;;
74872;SDS011;68776;44.762;37.698;2023-04-02T06:15:42;4.13;;;0.68;;
74872;SDS011;68776;44.762;37.698;2023-04-02T06:16:49;4.05;;;0.70;;
74872;SDS011;68776;44.762;37.698;2023-04-02T06:17:58;3.47;;;0.63;;
74872;SDS011;68776;44.762;37.698;2023-04-02T06:19:07;3.80;;;0.80;;
74872;SDS011;68776;44.762;37.698;2023-04-02T06:20:16;4.50;;;0.60;;
74872;SDS011;68776;44.762;37.698;2023-04-02T06:21:19;4.35;;;0.60;;
74872;SDS011;68776;44.762;37.698;2023-04-02T06:24:49;4.82;;;0.70;;
74872;SDS011;68776;44.762;37.698;2023-04-02T06:27:00;4.20;;;0.90;;
74872;SDS011;68776;44.762;37.698;2023-04-02T06:28:07;4.47;;;0.80;;
74872;SDS011;68776;44.762;37.698;2023-04-02T06:29:32;4.78;;;0.80;;
74872;SDS011;68776;44.762;37.698;2023-04-02T06:30:40;5.70;;;0.75;;
74872;SDS011;68776;44.762;37.698;2023-04-02T06:32:49;4.30;;;0.80;;
74872;SDS011;68776;44.762;37.698;2023-04-02T06:33:51;3.13;;;0.73;;
74872;SDS011;68776;44.762;37.698;2023-04-02T06:34:55;3.80;;;0.70;;
74872;SDS011;68776;44.762;37.698;2023-04-02T06:35:57;3.97;;;0.70;;
74872;SDS011;68776;44.762;37.698;2023-04-02T06:37:04;3.47;;;0.77;;
74872;SDS011;68776;44.762;37.698;2023-04-02T06:38:29;5.67;;;0.77;;
74872;SDS011;68776;44.762;37.698;2023-04-02T06:39:32;5.38;;;0.90;;
74872;SDS011;68776;44.762;37.698;2023-04-02T06:40:40;7.05;;;0.90;;
74872;SDS011;68776;44.762;37.698;2023-04-02T06:42:16;4.70;;;0.70;;
74872;SDS011;68776;44.762;37.698;2023-04-02T06:43:52;3.72;;;0.60;;
74872;SDS011;68776;44.762;37.698;2023-04-02T06:45:31;5.30;;;0.60;;
74872;SDS011;68776;44.762;37.698;2023-04-02T06:48:17;4.30;;;0.80;;
74872;SDS011;68776;44.762;37.698;2023-04-02T06:50:36;5.60;;;1.08;;
74872;SDS011;68776;44.762;37.698;2023-04-02T06:51:52;3.60;;;0.80;;
74872;SDS011;68776;44.762;37.698;2023-04-02T06:52:55;3.95;;;0.77;;
74872;SDS011;68776;44.762;37.698;2023-04-02T06:53:59;5.10;;;0.85;;
74872;SDS011;68776;44.762;37.698;2023-04-02T06:55:03;5.88;;;1.00;;
74872;SDS011;68776;44.762;37.698;2023-04-02T06:56:20;4.38;;;0.98;;
74872;SDS011;68776;44.762;37.698;2023-04-02T06:57:29;7.25;;;1.10;;
74872;SDS011;68776;44.762;37.698;2023-04-02T06:58:32;6.07;;;0.98;;
74872;SDS011;68776;44.762;37.698;2023-04-02T06:59:33;6.20;;;1.70;;
74872;SDS011;68776;44.762;37.698;2023-04-02T07:00:37;4.90;;;0.80;;
74872;SDS011;68776;44.762;37.698;2023-04-02T07:03:18;4.35;;;0.90;;
74872;SDS011;68776;44.762;37.698;2023-04-02T07:04:24;3.55;;;0.90;;
74872;SDS011;68776;44.762;37.698;2023-04-02T07:05:27;5.10;;;1.00;;
74872;SDS011;68776;44.762;37.698;2023-04-02T07:06:28;5.10;;;1.00;;
74872;SDS011;68776;44.762;37.698;2023-04-02T07:07:33;4.10;;;0.80;;
74872;SDS011;68776;44.762;37.698;2023-04-02T07:08:37;5.90;;;1.10;;
74872;SDS011;68776;44.762;37.698;2023-04-02T07:09:38;5.28;;;1.08;;
74872;SDS011;68776;44.762;37.698;2023-04-02T07:10:40;5.57;;;1.00;;
74872;SDS011;68776;44.762;37.698;2023-04-02T07:11:41;5.32;;;1.13;;
74872;SDS011;68776;44.762;37.698;2023-04-02T07:12:43;4.82;;;0.98;;
74872;SDS011;68776;44.762;37.698;2023-04-02T07:13:44;5.00;;;1.20;;
74872;SDS011;68776;44.762;37.698;2023-04-02T07:14:45;4.47;;;1.00;;
74872;SDS011;68776;44.762;37.698;2023-04-02T07:15:49;4.85;;;1.00;;
74872;SDS011;68776;44.762;37.698;2023-04-02T07:16:52;7.40;;;1.08;;
74872;SDS011;68776;44.762;37.698;2023-04-02T07:17:54;3.30;;;0.90;;
74872;SDS011;68776;44.762;37.698;2023-04-02T07:18:59;4.20;;;1.00;;
74872;SDS011;68776;44.762;37.698;2023-04-02T07:20:03;4.65;;;1.10;;
74872;SDS011;68776;44.762;37.698;2023-04-02T07:21:04;5.40;;;1.13;;
74872;SDS011;68776;44.762;37.698;2023-04-02T07:22:05;5.63;;;1.10;;
74872;SDS011;68776;44.762;37.698;2023-04-02T07:23:11;8.68;;;1.58;;
74872;SDS011;68776;44.762;37.698;2023-04-02T07:24:13;6.10;;;1.35;;
74872;SDS011;68776;44.762;37.698;2023-04-02T07:25:14;5.85;;;1.15;;
74872;SDS011;68776;44.762;37.698;2023-04-02T07:26:16;5.40;;;0.90;;
74872;SDS011;68776;44.762;37.698;2023-04-02T07:27:19;7.85;;;1.15;;
74872;SDS011;68776;44.762;37.698;2023-04-02T07:28:20;15.20;;;2.35;;
74872;SDS011;68776;44.762;37.698;2023-04-02T07:29:22;4.50;;;1.00;;
74872;SDS011;68776;44.762;37.698;2023-04-02T07:30:23;5.22;;;1.00;;
74872;SDS011;68776;44.762;37.698;2023-04-02T07:31:25;5.03;;;0.98;;
74872;SDS011;68776;44.762;37.698;2023-04-02T07:32:27;5.25;;;1.05;;
74872;SDS011;68776;44.762;37.698;2023-04-02T07:33:28;6.35;;;0.80;;
74872;SDS011;68776;44.762;37.698;2023-04-02T07:34:30;5.25;;;1.10;;
74872;SDS011;68776;44.762;37.698;2023-04-02T07:35:31;4.50;;;0.80;;
74872;SDS011;68776;44.762;37.698;2023-04-02T07:36:33;4.18;;;0.80;;
74872;SDS011;68776;44.762;37.698;2023-04-02T07:37:35;4.45;;;0.82;;
74872;SDS011;68776;44.762;37.698;2023-04-02T07:38:37;3.88;;;0.90;;
74872;SDS011;68776;44.762;37.698;2023-04-02T07:39:38;4.07;;;0.75;;
74872;SDS011;68776;44.762;37.698;2023-04-02T07:40:39;3.50;;;0.70;;
74872;SDS011;68776;44.762;37.698;2023-04-02T07:41:50;5.82;;;0.90;;
74872;SDS011;68776;44.762;37.698;2023-04-02T07:42:55;3.42;;;0.70;;
74872;SDS011;68776;44.762;37.698;2023-04-02T07:43:56;3.40;;;0.73;;
74872;SDS011;68776;44.762;37.698;2023-04-02T07:44:57;3.33;;;0.70;;
74872;SDS011;68776;44.762;37.698;2023-04-02T07:45:58;4.40;;;1.17;;
74872;SDS011;68776;44.762;37.698;2023-04-02T07:47:00;3.95;;;0.80;;
74872;SDS011;68776;44.762;37.698;2023-04-02T07:48:04;3.78;;;0.73;;
74872;SDS011;68776;44.762;37.698;2023-04-02T07:49:09;4.45;;;0.85;;
74872;SDS011;68776;44.762;37.698;2023-04-02T07:50:10;4.70;;;0.95;;
74872;SDS011;68776;44.762;37.698;2023-04-02T07:51:15;11.98;;;1.58;;
74872;SDS011;68776;44.762;37.698;2023-04-02T07:52:21;5.18;;;1.00;;
74872;SDS011;68776;44.762;37.698;2023-04-02T07:54:33;5.30;;;0.80;;
74872;SDS011;68776;44.762;37.698;2023-04-02T07:55:35;3.73;;;0.80;;
74872;SDS011;68776;44.762;37.698;2023-04-02T07:56:36;4.07;;;0.93;;
74872;SDS011;68776;44.762;37.698;2023-04-02T07:57:38;6.07;;;1.17;;
74872;SDS011;68776;44.762;37.698;2023-04-02T07:58:50;3.53;;;0.63;;
74872;SDS011;68776;44.762;37.698;2023-04-02T07:59:51;3.33;;;0.70;;
74872;SDS011;68776;44.762;37.698;2023-04-02T08:00:55;5.40;;;0.88;;
74872;SDS011;68776;44.762;37.698;2023-04-02T08:01:57;5.57;;;1.40;;
74872;SDS011;68776;44.762;37.698;2023-04-02T08:02:58;8.40;;;1.60;;
74872;SDS011;68776;44.762;37.698;2023-04-02T08:03:59;5.80;;;1.10;;
74872;SDS011;68776;44.762;37.698;2023-04-02T08:05:01;5.55;;;0.90;;